Terminal Aerodrome Forecast
Issued by NWS

Home | Current Version | Previous Version | Text Only | Print | Product List | Glossary On
Versions: 1 2 3 4 5 6 7 8 9 10 11 12 13 14 15 16 17
000
FTUS43 KEAX 172300
TAFMKC
TAF
KMKC 172332Z 1800/1824 08005KT P6SM SCT020
      TEMPO 1800/1802 BKN020
     FM180600 09003KT 4SM BR OVC010
     FM181000 09003KT 2SM BR OVC006
     FM181400 09004KT 4SM BR OVC010
     FM181700 11006KT P6SM SCT020=

USA.gov is the U.S. government's official web portal to all federal, state and local government web resources and services.